Time;durP1;ratioP1;P1;durP2;ratioP2;P2;SDS_P1;SDS_P2;PMS_P1;PMS_P2;Temp;Humidity;BMP_temperature;BMP_pressure;BME280_temperature;BME280_humidity;BME280_pressure;Samples;Min_cycle;Max_cycle;Signal;HPM_P1;HPM_P2
2022/03/29 00:01:24;;;;;;;10.17;6.13;;;11.00;55.00;;;;;;918352;153;27423;-77
2022/03/29 00:03:51;;;;;;;7.37;6.50;;;11.00;54.90;;;;;;919562;152;27414;-77
2022/03/29 00:06:18;;;;;;;6.10;5.43;;;10.90;55.00;;;;;;920312;153;27373;-77
2022/03/29 00:08:44;;;;;;;6.30;5.70;;;10.90;55.00;;;;;;920992;153;27416;-77
2022/03/29 00:11:11;;;;;;;7.23;6.20;;;10.90;55.10;;;;;;921320;153;27475;-77
2022/03/29 00:13:37;;;;;;;6.63;5.93;;;10.90;55.20;;;;;;919681;153;27303;-77
2022/03/29 00:16:04;;;;;;;7.67;5.97;;;10.90;55.40;;;;;;920211;153;27437;-77
2022/03/29 00:18:31;;;;;;;7.87;6.30;;;10.80;55.50;;;;;;919723;151;27838;-77
2022/03/29 00:20:57;;;;;;;6.93;6.13;;;10.80;55.50;;;;;;919595;153;27466;-77
2022/03/29 00:23:24;;;;;;;6.73;5.90;;;10.80;55.60;;;;;;920168;153;27404;-77
2022/03/29 00:25:50;;;;;;;7.73;5.50;;;10.80;55.60;;;;;;925998;150;27415;-76
2022/03/29 00:28:17;;;;;;;8.30;6.43;;;10.80;55.70;;;;;;932327;150;27334;-76
2022/03/29 00:30:44;;;;;;;5.67;5.10;;;10.70;56.30;;;;;;930442;150;27426;-77
2022/03/29 00:33:10;;;;;;;5.93;5.40;;;10.70;55.80;;;;;;930621;152;27382;-76
2022/03/29 00:35:38;;;;;;;8.27;6.90;;;10.70;55.80;;;;;;921793;150;27432;-77
2022/03/29 00:38:03;;;;;;;6.23;5.63;;;10.70;56.00;;;;;;934553;151;27370;-77
2022/03/29 00:40:30;;;;;;;8.77;6.13;;;10.60;56.00;;;;;;933301;151;27414;-77
2022/03/29 00:42:57;;;;;;;6.17;5.57;;;10.60;56.10;;;;;;933533;151;27339;-77
2022/03/29 00:45:23;;;;;;;8.37;6.37;;;10.60;56.30;;;;;;933005;151;27386;-76
2022/03/29 00:47:50;;;;;;;7.47;6.67;;;10.60;56.30;;;;;;933953;151;27917;-77
2022/03/29 00:50:16;;;;;;;6.70;5.77;;;10.60;56.40;;;;;;933142;151;27302;-77
2022/03/29 00:52:43;;;;;;;7.60;6.17;;;10.60;56.40;;;;;;933458;150;27295;-76
2022/03/29 00:55:13;;;;;;;8.07;6.33;;;10.60;56.50;;;;;;933858;151;27366;-77
2022/03/29 00:57:39;;;;;;;7.13;6.33;;;10.60;56.50;;;;;;931118;151;27357;-77
2022/03/29 01:00:06;;;;;;;6.90;6.00;;;10.50;56.60;;;;;;933396;151;27486;-77
2022/03/29 01:02:32;;;;;;;8.37;6.63;;;10.50;56.60;;;;;;931966;151;27440;-77
2022/03/29 01:04:59;;;;;;;6.97;6.27;;;10.50;56.60;;;;;;932605;151;27392;-76
2022/03/29 01:07:27;;;;;;;9.97;7.03;;;10.50;56.60;;;;;;932685;151;27284;-76
2022/03/29 01:09:52;;;;;;;7.10;6.40;;;10.50;56.80;;;;;;932546;151;27381;-77
2022/03/29 01:12:19;;;;;;;8.70;7.20;;;10.50;57.00;;;;;;936584;151;27389;-76
2022/03/29 01:14:45;;;;;;;8.20;6.93;;;10.50;56.90;;;;;;936491;150;27310;-76
2022/03/29 01:19:56;;;;;;;8.07;7.03;;;10.50;57.30;;;;;;934298;150;27378;-77
2022/03/29 01:22:23;;;;;;;8.87;7.50;;;10.50;57.40;;;;;;934663;151;27388;-76
2022/03/29 01:24:51;;;;;;;10.60;8.70;;;10.50;57.60;;;;;;933768;151;27377;-77
2022/03/29 01:27:16;;;;;;;8.07;6.97;;;10.50;57.60;;;;;;924863;154;27931;-77
2022/03/29 01:29:43;;;;;;;8.33;7.30;;;10.50;57.70;;;;;;931794;151;27348;-77
2022/03/29 01:32:09;;;;;;;7.70;6.80;;;10.50;57.80;;;;;;925551;155;27417;-76
2022/03/29 01:34:37;;;;;;;7.83;7.03;;;10.50;57.80;;;;;;932583;151;27294;-77
2022/03/29 01:37:05;;;;;;;6.77;6.10;;;10.40;57.80;;;;;;925189;154;27375;-77
2022/03/29 01:39:32;;;;;;;8.47;6.67;;;10.40;57.70;;;;;;925627;154;27355;-77
2022/03/29 01:41:58;;;;;;;6.80;6.07;;;10.40;57.70;;;;;;932880;152;27290;-77
2022/03/29 01:44:25;;;;;;;7.47;6.37;;;10.40;57.70;;;;;;932336;152;27319;-77
2022/03/29 01:46:52;;;;;;;8.63;6.40;;;10.40;57.70;;;;;;925607;154;27458;-77
2022/03/29 01:49:18;;;;;;;9.33;6.70;;;10.30;57.70;;;;;;925421;154;27998;-77
2022/03/29 01:51:45;;;;;;;8.43;6.40;;;10.30;57.70;;;;;;925128;155;27343;-77
2022/03/29 01:54:11;;;;;;;7.43;6.23;;;10.30;57.90;;;;;;925531;155;27383;-77
2022/03/29 01:56:38;;;;;;;9.60;6.10;;;10.20;57.90;;;;;;932720;152;27359;-77
2022/03/29 01:59:04;;;;;;;8.40;5.67;;;10.20;58.00;;;;;;925653;155;27354;-77
2022/03/29 02:01:32;;;;;;;7.03;5.97;;;10.10;58.10;;;;;;924916;152;27961;-76
2022/03/29 02:03:57;;;;;;;7.93;6.33;;;10.10;58.10;;;;;;924800;154;27399;-77
2022/03/29 02:06:24;;;;;;;7.33;5.77;;;10.00;58.10;;;;;;925089;154;27352;-77
2022/03/29 02:08:51;;;;;;;9.70;7.10;;;10.00;58.20;;;;;;924898;154;27276;-77
2022/03/29 02:11:17;;;;;;;9.00;7.17;;;10.00;58.30;;;;;;925017;155;27375;-78
2022/03/29 02:13:44;;;;;;;11.87;7.03;;;10.00;58.60;;;;;;924538;155;28491;-73
2022/03/29 02:16:10;;;;;;;8.23;7.27;;;9.90;58.80;;;;;;932397;151;27282;-74
2022/03/29 02:18:37;;;;;;;8.80;7.43;;;9.90;59.00;;;;;;932530;151;27297;-74
2022/03/29 02:21:04;;;;;;;10.47;8.40;;;9.90;59.00;;;;;;925402;155;27316;-75
2022/03/29 02:23:30;;;;;;;9.57;7.90;;;9.80;59.20;;;;;;925073;155;27455;-74
2022/03/29 02:25:57;;;;;;;10.90;8.13;;;9.80;59.40;;;;;;925430;154;27397;-74
2022/03/29 02:28:23;;;;;;;10.87;8.33;;;9.80;59.40;;;;;;925272;154;27351;-74
2022/03/29 02:30:50;;;;;;;9.10;7.20;;;9.80;59.50;;;;;;925268;153;27417;-77
2022/03/29 02:33:16;;;;;;;10.87;9.00;;;9.80;58.80;;;;;;925634;154;27308;-77
2022/03/29 02:35:43;;;;;;;11.00;8.00;;;9.70;59.60;;;;;;932893;151;27399;-76
2022/03/29 02:38:11;;;;;;;9.73;7.67;;;9.70;59.70;;;;;;932996;152;27464;-76
2022/03/29 02:40:36;;;;;;;9.07;7.27;;;9.60;59.60;;;;;;932368;152;27316;-76
2022/03/29 02:43:03;;;;;;;7.97;7.20;;;9.60;59.70;;;;;;925197;155;27864;-77
2022/03/29 02:45:29;;;;;;;8.87;6.53;;;9.60;59.90;;;;;;932280;151;27364;-77
2022/03/29 02:47:56;;;;;;;10.83;8.00;;;9.60;59.80;;;;;;925298;155;27398;-77
2022/03/29 02:50:23;;;;;;;7.73;6.37;;;9.50;59.80;;;;;;924984;154;27360;-77
2022/03/29 02:52:49;;;;;;;7.90;6.90;;;9.50;59.80;;;;;;938566;151;27294;-77
2022/03/29 02:55:16;;;;;;;6.43;5.73;;;9.50;59.90;;;;;;937791;152;27431;-77
2022/03/29 02:57:43;;;;;;;7.80;6.60;;;9.40;60.00;;;;;;939509;152;27298;-77
2022/03/29 03:00:09;;;;;;;7.30;6.10;;;9.40;59.90;;;;;;931668;151;28170;-77
2022/03/29 03:02:37;;;;;;;8.07;6.43;;;9.30;60.00;;;;;;919244;152;27370;-77
2022/03/29 03:05:02;;;;;;;8.93;7.00;;;9.30;60.00;;;;;;916468;153;27439;-77
2022/03/29 03:07:29;;;;;;;7.33;6.03;;;9.20;60.00;;;;;;921965;155;27416;-77
2022/03/29 03:09:55;;;;;;;7.40;5.77;;;9.20;60.10;;;;;;938866;152;27309;-77
2022/03/29 03:12:22;;;;;;;6.87;5.80;;;9.20;60.40;;;;;;938041;152;27356;-77
2022/03/29 03:14:48;;;;;;;7.90;6.20;;;9.10;60.30;;;;;;937607;151;27361;-77
2022/03/29 03:17:15;;;;;;;7.60;6.23;;;9.10;60.30;;;;;;921767;155;27557;-77
2022/03/29 03:19:43;;;;;;;8.43;6.30;;;9.10;60.50;;;;;;938461;152;27337;-77
2022/03/29 03:22:08;;;;;;;10.00;6.63;;;9.00;60.60;;;;;;938698;152;27317;-77
2022/03/29 03:24:35;;;;;;;7.40;6.57;;;9.00;60.70;;;;;;920567;155;27338;-77
2022/03/29 03:27:01;;;;;;;10.27;7.00;;;8.90;60.70;;;;;;938162;151;27438;-77
2022/03/29 03:29:28;;;;;;;8.07;7.03;;;8.90;60.80;;;;;;936246;149;27989;-77
2022/03/29 03:31:55;;;;;;;7.83;6.20;;;8.90;61.00;;;;;;939496;149;27403;-77
2022/03/29 03:34:21;;;;;;;6.70;5.83;;;8.80;61.00;;;;;;939799;149;27377;-77
2022/03/29 03:36:48;;;;;;;7.57;5.63;;;8.80;61.00;;;;;;939242;149;27378;-77
2022/03/29 03:39:14;;;;;;;6.77;6.07;;;8.70;61.10;;;;;;938580;149;27407;-77
2022/03/29 03:41:41;;;;;;;9.27;6.37;;;8.70;61.20;;;;;;936021;149;27405;-77
2022/03/29 03:44:09;;;;;;;7.30;5.77;;;8.60;61.20;;;;;;937192;149;27606;-77
2022/03/29 03:46:34;;;;;;;7.23;6.30;;;8.60;61.30;;;;;;936574;149;27319;-77
2022/03/29 03:49:01;;;;;;;7.10;6.40;;;8.50;61.30;;;;;;938405;149;27433;-77
2022/03/29 03:51:27;;;;;;;7.50;6.53;;;8.50;61.50;;;;;;937261;149;27368;-79
2022/03/29 03:53:54;;;;;;;6.90;5.73;;;8.50;61.70;;;;;;938749;149;27275;-79
2022/03/29 03:56:20;;;;;;;9.63;5.83;;;8.40;62.00;;;;;;939018;149;27268;-79
2022/03/29 03:58:47;;;;;;;7.63;6.23;;;8.40;61.90;;;;;;938499;149;27857;-79
2022/03/29 04:01:14;;;;;;;9.27;6.57;;;8.30;62.00;;;;;;938109;149;27401;-79
2022/03/29 04:03:40;;;;;;;7.40;6.30;;;8.30;62.10;;;;;;936812;149;27305;-79
2022/03/29 04:06:07;;;;;;;8.77;6.80;;;8.30;62.20;;;;;;938474;149;27346;-79
2022/03/29 04:08:33;;;;;;;10.33;7.17;;;8.30;62.40;;;;;;937520;149;27323;-79
2022/03/29 04:11:00;;;;;;;9.60;6.63;;;8.30;62.50;;;;;;936807;149;27811;-79
2022/03/29 04:13:27;;;;;;;7.00;6.03;;;8.30;62.50;;;;;;938616;149;27375;-79
2022/03/29 04:15:53;;;;;;;10.30;6.90;;;8.20;62.60;;;;;;939375;149;27238;-79
2022/03/29 04:18:20;;;;;;;7.50;6.70;;;8.20;62.70;;;;;;938378;149;27425;-79
2022/03/29 04:20:46;;;;;;;8.10;7.13;;;8.30;63.00;;;;;;938068;149;27311;-79
2022/03/29 04:23:13;;;;;;;7.13;6.40;;;8.30;63.10;;;;;;937125;149;27378;-79
2022/03/29 04:25:39;;;;;;;7.57;6.70;;;8.30;63.30;;;;;;938681;149;27392;-77
2022/03/29 04:28:06;;;;;;;9.97;7.50;;;8.30;63.30;;;;;;937084;149;28068;-77
2022/03/29 04:30:33;;;;;;;8.97;6.70;;;8.30;63.30;;;;;;917656;152;27361;-79
2022/03/29 04:32:59;;;;;;;8.97;6.90;;;8.30;63.40;;;;;;919441;152;27364;-79
2022/03/29 04:35:26;;;;;;;7.13;6.43;;;8.30;63.50;;;;;;935498;149;27343;-79
2022/03/29 04:37:53;;;;;;;8.63;6.70;;;8.40;63.60;;;;;;937114;149;27443;-77
2022/03/29 04:40:19;;;;;;;7.83;6.83;;;8.40;63.60;;;;;;931403;150;28092;-77
2022/03/29 04:42:46;;;;;;;8.33;7.03;;;8.40;63.70;;;;;;932030;152;27255;-79
2022/03/29 04:45:12;;;;;;;12.17;7.77;;;8.50;63.70;;;;;;930877;152;27348;-79
2022/03/29 04:47:39;;;;;;;7.70;6.90;;;8.50;63.70;;;;;;930018;151;27497;-79
2022/03/29 04:50:05;;;;;;;9.70;7.60;;;8.60;63.70;;;;;;930071;152;27382;-79
2022/03/29 04:52:32;;;;;;;10.53;7.70;;;8.60;63.60;;;;;;932568;152;28057;-79
2022/03/29 04:54:58;;;;;;;9.17;6.93;;;8.60;63.60;;;;;;928946;152;27464;-79
2022/03/29 04:57:25;;;;;;;8.13;7.10;;;8.70;64.40;;;;;;931988;152;27328;-79
2022/03/29 04:59:52;;;;;;;8.03;7.23;;;8.70;63.60;;;;;;930881;149;27424;-79
2022/03/29 05:02:18;;;;;;;9.53;7.77;;;8.70;63.60;;;;;;930412;150;27374;-77
2022/03/29 05:04:45;;;;;;;9.30;6.80;;;8.70;63.50;;;;;;930774;152;28477;-77
2022/03/29 05:07:11;;;;;;;9.37;6.93;;;8.70;63.50;;;;;;929942;150;27453;-79
2022/03/29 05:09:38;;;;;;;8.73;7.83;;;8.70;63.50;;;;;;930230;152;27288;-79
2022/03/29 05:12:05;;;;;;;8.77;7.77;;;8.80;63.60;;;;;;928102;152;27329;-79
2022/03/29 05:14:32;;;;;;;9.37;8.03;;;8.80;63.60;;;;;;930083;152;27468;-79
2022/03/29 05:16:58;;;;;;;11.63;8.00;;;8.80;63.70;;;;;;930494;152;27364;-79
2022/03/29 05:19:24;;;;;;;9.57;7.50;;;8.80;63.80;;;;;;930242;152;27288;-79
2022/03/29 05:21:51;;;;;;;10.17;7.40;;;8.80;63.80;;;;;;929515;151;27424;-79
2022/03/29 05:24:17;;;;;;;8.40;6.93;;;8.80;63.90;;;;;;930098;152;27490;-79
2022/03/29 05:26:44;;;;;;;9.97;7.00;;;8.80;63.80;;;;;;931982;152;27425;-79
2022/03/29 05:29:11;;;;;;;8.97;7.77;;;8.80;63.80;;;;;;931841;152;27476;-80
2022/03/29 05:31:37;;;;;;;9.27;7.27;;;8.90;64.00;;;;;;931772;151;27634;-79
2022/03/29 05:34:04;;;;;;;8.40;7.37;;;8.90;64.10;;;;;;932073;152;27892;-79
2022/03/29 05:36:30;;;;;;;9.33;7.90;;;8.90;64.20;;;;;;932059;151;27343;-79
2022/03/29 05:38:57;;;;;;;11.17;7.90;;;8.90;64.20;;;;;;932029;152;27470;-79
2022/03/29 05:41:24;;;;;;;8.27;7.37;;;9.00;64.20;;;;;;932199;151;27486;-79
2022/03/29 05:43:50;;;;;;;10.47;7.60;;;9.00;64.20;;;;;;932110;152;27363;-79
2022/03/29 05:49:02;;;;;;;9.60;7.53;;;9.10;64.60;;;;;;931924;152;27339;-79
2022/03/29 05:51:28;;;;;;;11.50;7.43;;;9.10;64.50;;;;;;931758;152;27392;-79
2022/03/29 05:53:57;;;;;;;9.37;7.93;;;9.20;64.60;;;;;;931835;152;27400;-79
2022/03/29 05:56:24;;;;;;;11.03;7.63;;;9.30;64.70;;;;;;931858;152;27326;-79
2022/03/29 05:58:50;;;;;;;10.07;8.00;;;9.30;64.70;;;;;;932151;152;27751;-78
2022/03/29 06:01:18;;;;;;;11.63;8.27;;;9.40;64.70;;;;;;931751;152;27899;-77
2022/03/29 06:03:44;;;;;;;9.23;7.47;;;9.50;64.10;;;;;;931526;151;27413;-77
2022/03/29 06:06:10;;;;;;;8.33;7.47;;;9.50;64.80;;;;;;931637;152;27306;-77
2022/03/29 06:08:37;;;;;;;8.63;7.63;;;9.60;64.90;;;;;;931340;152;27330;-77
2022/03/29 06:11:04;;;;;;;8.27;7.47;;;9.70;64.80;;;;;;931480;151;27326;-77
2022/03/29 06:13:30;;;;;;;11.43;7.77;;;9.80;64.90;;;;;;931975;152;27398;-77
2022/03/29 06:15:57;;;;;;;8.57;7.67;;;9.90;64.90;;;;;;932218;152;27368;-77
2022/03/29 06:18:23;;;;;;;9.23;7.93;;;10.00;64.80;;;;;;931914;151;27291;-77
2022/03/29 06:20:50;;;;;;;9.10;8.10;;;10.10;64.70;;;;;;931406;152;27401;-77
2022/03/29 06:23:16;;;;;;;8.50;7.13;;;10.20;64.60;;;;;;932358;151;27342;-77
2022/03/29 06:25:43;;;;;;;11.83;8.07;;;10.30;64.50;;;;;;931995;151;27460;-77
2022/03/29 06:28:10;;;;;;;9.93;7.67;;;10.40;64.50;;;;;;932232;151;27349;-77
2022/03/29 06:30:36;;;;;;;9.40;8.43;;;10.50;64.50;;;;;;932038;151;28438;-77
2022/03/29 06:33:03;;;;;;;10.87;7.63;;;10.60;64.50;;;;;;931469;151;27252;-77
2022/03/29 06:35:31;;;;;;;8.97;7.23;;;10.70;64.40;;;;;;931997;152;27430;-77
2022/03/29 06:37:56;;;;;;;11.17;8.07;;;10.80;64.50;;;;;;931183;152;27398;-77
2022/03/29 06:40:22;;;;;;;9.73;7.73;;;10.90;64.30;;;;;;931545;151;27390;-77
2022/03/29 06:42:49;;;;;;;8.80;7.90;;;11.00;64.30;;;;;;932098;152;27421;-77
2022/03/29 06:45:16;;;;;;;10.83;7.93;;;11.10;64.20;;;;;;932516;151;27334;-77
2022/03/29 06:47:42;;;;;;;9.43;7.90;;;11.20;64.10;;;;;;932226;152;27426;-77
2022/03/29 06:50:09;;;;;;;9.40;8.10;;;11.30;64.10;;;;;;932115;151;27354;-77
2022/03/29 06:52:35;;;;;;;12.60;8.63;;;11.40;63.90;;;;;;932152;152;27394;-77
2022/03/29 06:55:02;;;;;;;9.37;8.37;;;11.50;63.90;;;;;;931746;152;27339;-77
2022/03/29 06:57:29;;;;;;;11.83;8.63;;;11.60;63.90;;;;;;931717;152;28504;-77
2022/03/29 06:59:55;;;;;;;13.50;9.87;;;11.70;63.80;;;;;;931360;151;27435;-77
2022/03/29 07:02:22;;;;;;;11.13;8.80;;;11.90;63.60;;;;;;931542;151;27452;-77
2022/03/29 07:04:48;;;;;;;11.37;9.47;;;12.00;63.50;;;;;;931753;151;27373;-76
2022/03/29 07:07:15;;;;;;;13.10;8.97;;;12.10;63.30;;;;;;932185;152;28484;-76
2022/03/29 07:12:30;;;;;;;13.40;10.27;;;12.40;63.10;;;;;;931528;152;27361;-77
2022/03/29 07:14:53;;;;;;;12.80;10.20;;;12.60;62.70;;;;;;931852;152;27299;-77
2022/03/29 07:17:20;;;;;;;13.50;9.63;;;12.70;62.70;;;;;;931806;152;27438;-77
2022/03/29 07:19:46;;;;;;;12.53;10.10;;;12.90;62.60;;;;;;932180;151;27463;-77
2022/03/29 07:22:13;;;;;;;11.57;10.37;;;13.00;62.60;;;;;;931023;152;27707;-77
2022/03/29 07:24:40;;;;;;;11.03;9.83;;;13.20;62.30;;;;;;931599;151;27338;-77
2022/03/29 07:27:07;;;;;;;11.37;10.13;;;13.40;62.20;;;;;;932157;151;27350;-77
2022/03/29 07:29:33;;;;;;;17.73;13.03;;;13.50;62.20;;;;;;930787;151;27378;-77
2022/03/29 07:31:59;;;;;;;15.03;11.30;;;13.70;62.30;;;;;;930205;152;27374;-77
2022/03/29 07:34:26;;;;;;;12.13;10.80;;;13.90;61.90;;;;;;930129;152;27284;-77
2022/03/29 07:36:56;;;;;;;14.13;10.43;;;14.10;61.80;;;;;;930455;152;27373;-77
2022/03/29 07:39:19;;;;;;;14.57;10.60;;;14.30;61.40;;;;;;931300;152;27343;-77
2022/03/29 07:41:46;;;;;;;11.53;10.07;;;14.50;61.90;;;;;;930990;150;27286;-77
2022/03/29 07:44:13;;;;;;;14.40;10.98;;;14.70;60.70;;;;;;931579;152;27858;-78
2022/03/29 07:46:39;;;;;;;12.83;10.87;;;14.80;60.30;;;;;;931103;151;27401;-77
2022/03/29 07:49:05;;;;;;;17.92;11.18;;;14.90;60.00;;;;;;930879;150;27387;-77
2022/03/29 07:51:32;;;;;;;13.40;10.97;;;15.10;60.00;;;;;;930352;151;27324;-77
2022/03/29 07:53:59;;;;;;;12.33;10.97;;;15.20;59.80;;;;;;931781;152;27294;-77
2022/03/29 07:56:26;;;;;;;14.37;10.60;;;15.40;59.80;;;;;;931234;150;27500;-77
2022/03/29 07:58:52;;;;;;;12.07;10.30;;;15.60;59.70;;;;;;931035;152;27435;-77
2022/03/29 08:01:18;;;;;;;14.37;10.60;;;15.70;59.40;;;;;;930361;152;27395;-78
2022/03/29 08:03:45;;;;;;;11.97;10.78;;;15.90;59.20;;;;;;929904;152;27404;-77
2022/03/29 08:06:12;;;;;;;14.77;11.73;;;16.00;59.50;;;;;;930677;152;27339;-78
2022/03/29 08:08:38;;;;;;;14.65;10.32;;;16.20;58.70;;;;;;931686;152;27466;-77
2022/03/29 08:11:05;;;;;;;14.35;11.48;;;16.30;58.50;;;;;;930663;151;27381;-77
2022/03/29 08:13:31;;;;;;;12.78;10.60;;;16.50;58.40;;;;;;931568;152;27279;-77
2022/03/29 08:15:58;;;;;;;14.93;11.12;;;16.60;58.20;;;;;;930462;152;27463;-78
2022/03/29 08:18:25;;;;;;;13.75;10.68;;;16.70;57.90;;;;;;930648;150;27326;-78
2022/03/29 08:20:51;;;;;;;13.63;10.23;;;16.80;57.70;;;;;;931733;151;27363;-78
2022/03/29 08:23:18;;;;;;;14.53;11.40;;;16.90;57.50;;;;;;931389;152;27440;-78
2022/03/29 08:25:44;;;;;;;13.60;10.58;;;17.00;57.40;;;;;;929835;152;27422;-78
2022/03/29 08:28:11;;;;;;;12.00;10.03;;;17.10;57.20;;;;;;930690;152;27390;-78
2022/03/29 08:30:38;;;;;;;15.48;11.70;;;17.10;56.90;;;;;;930494;151;27368;-77
2022/03/29 08:33:04;;;;;;;15.43;10.82;;;17.10;56.80;;;;;;930858;152;27440;-78
2022/03/29 08:35:31;;;;;;;13.00;10.47;;;17.20;56.90;;;;;;929715;150;27369;-78
2022/03/29 08:37:57;;;;;;;14.58;11.20;;;17.20;56.80;;;;;;930362;152;27378;-78
2022/03/29 08:40:27;;;;;;;13.58;11.53;;;17.20;56.70;;;;;;930510;152;27284;-78
2022/03/29 08:42:58;;;;;;;15.90;11.83;;;17.30;56.50;;;;;;929559;152;27410;-78
2022/03/29 08:45:20;;;;;;;14.45;11.60;;;17.30;56.40;;;;;;929637;152;27377;-78
2022/03/29 08:47:47;;;;;;;12.78;10.88;;;17.30;56.30;;;;;;930631;150;27431;-78
2022/03/29 08:50:13;;;;;;;13.68;12.10;;;17.40;56.30;;;;;;930644;150;27345;-78
2022/03/29 08:52:40;;;;;;;15.13;12.63;;;17.40;56.20;;;;;;929635;152;27314;-78
2022/03/29 08:55:06;;;;;;;15.10;11.60;;;17.40;55.80;;;;;;931746;151;27400;-78
2022/03/29 08:57:33;;;;;;;18.23;12.35;;;17.50;55.80;;;;;;929548;151;27702;-78
2022/03/29 08:59:59;;;;;;;13.48;11.45;;;17.50;55.80;;;;;;931753;151;27390;-78
2022/03/29 09:02:28;;;;;;;15.15;11.33;;;17.50;55.90;;;;;;930978;151;27398;-78
2022/03/29 09:05:12;;;;;;;14.73;10.72;;;17.60;55.80;;;;;;929307;151;28287;-78
2022/03/29 09:07:50;;;;;;;15.15;11.57;;;17.60;55.90;;;;;;930393;152;27323;-78
2022/03/29 09:10:16;;;;;;;14.47;11.45;;;17.70;55.80;;;;;;930901;151;27289;-78
2022/03/29 09:12:42;;;;;;;13.25;11.10;;;17.90;55.80;;;;;;931147;151;27426;-78
2022/03/29 09:15:09;;;;;;;16.05;11.85;;;18.00;55.90;;;;;;930346;152;27464;-78
2022/03/29 09:17:36;;;;;;;12.30;11.03;;;18.20;55.80;;;;;;930890;150;27414;-78
2022/03/29 09:20:09;;;;;;;14.30;11.33;;;18.30;55.60;;;;;;930989;152;27339;-78
2022/03/29 09:22:39;;;;;;;13.40;10.20;;;18.50;55.30;;;;;;929752;152;27426;-78
2022/03/29 09:25:04;;;;;;;13.60;10.85;;;18.60;55.10;;;;;;930967;151;27407;-78
2022/03/29 09:27:31;;;;;;;11.97;9.83;;;18.70;54.90;;;;;;929758;152;27400;-78
2022/03/29 09:30:07;;;;;;;10.45;9.35;;;18.90;54.60;;;;;;930314;151;27368;-78
2022/03/29 09:32:34;;;;;;;12.35;10.43;;;19.00;54.20;;;;;;929744;152;27387;-78
2022/03/29 09:35:08;;;;;;;13.75;10.23;;;19.10;53.90;;;;;;931255;152;28032;-78
2022/03/29 09:37:35;;;;;;;10.25;8.68;;;19.20;53.70;;;;;;929064;152;27468;-78
2022/03/29 09:40:02;;;;;;;12.30;9.38;;;19.20;53.80;;;;;;930477;150;27291;-78
2022/03/29 09:42:28;;;;;;;11.75;8.95;;;19.40;53.80;;;;;;930910;152;27335;-78
2022/03/29 09:44:57;;;;;;;12.95;9.28;;;19.50;53.70;;;;;;930453;152;27340;-78
2022/03/29 09:47:21;;;;;;;11.35;8.48;;;19.70;53.60;;;;;;931669;152;27327;-78
2022/03/29 09:50:06;;;;;;;11.80;8.80;;;19.90;53.60;;;;;;933025;151;27373;-78
2022/03/29 09:52:30;;;;;;;7.58;6.85;;;20.20;53.30;;;;;;930725;152;27399;-78
2022/03/29 09:55:17;;;;;;;9.30;7.05;;;20.40;52.90;;;;;;929437;152;27291;-78
2022/03/29 09:57:44;;;;;;;8.38;6.67;;;20.60;51.70;;;;;;931680;152;27367;-78
2022/03/29 10:00:10;;;;;;;7.90;6.62;;;20.90;52.00;;;;;;929249;152;27432;-78
2022/03/29 10:02:37;;;;;;;7.62;6.12;;;21.00;51.40;;;;;;931651;152;27488;-78
2022/03/29 10:05:04;;;;;;;7.05;5.80;;;21.20;50.80;;;;;;930165;152;27381;-78
2022/03/29 10:07:39;;;;;;;7.28;6.58;;;21.30;50.50;;;;;;930796;152;27301;-78
2022/03/29 10:10:06;;;;;;;6.08;5.50;;;21.40;50.10;;;;;;929850;150;27391;-78
2022/03/29 10:12:32;;;;;;;8.58;6.22;;;21.40;49.60;;;;;;931360;152;27375;-78
2022/03/29 10:14:59;;;;;;;7.58;5.90;;;21.40;49.30;;;;;;929300;152;27435;-78
2022/03/29 10:17:26;;;;;;;6.42;5.80;;;21.50;49.10;;;;;;931064;152;27318;-78
2022/03/29 10:19:52;;;;;;;5.90;5.33;;;21.50;49.00;;;;;;931605;152;27352;-78
2022/03/29 10:22:19;;;;;;;7.42;6.72;;;21.50;48.70;;;;;;930992;152;27314;-78
2022/03/29 10:24:45;;;;;;;9.03;6.80;;;21.50;48.70;;;;;;929888;152;27350;-78
2022/03/29 10:27:12;;;;;;;7.95;7.10;;;21.50;48.80;;;;;;930339;152;27579;-78
2022/03/29 10:29:38;;;;;;;9.73;7.58;;;21.60;48.70;;;;;;930986;152;27327;-78
2022/03/29 10:32:08;;;;;;;7.78;6.97;;;21.60;48.70;;;;;;928911;152;27568;-78
2022/03/29 10:34:39;;;;;;;8.55;6.78;;;21.70;48.20;;;;;;929451;152;27923;-78
2022/03/29 10:37:19;;;;;;;8.10;6.95;;;21.70;48.10;;;;;;930944;152;27931;-78
2022/03/29 10:39:54;;;;;;;8.48;7.28;;;21.80;47.50;;;;;;930416;152;27400;-78
2022/03/29 10:42:26;;;;;;;8.55;7.15;;;21.80;47.40;;;;;;930686;152;27815;-78
2022/03/29 10:45:12;;;;;;;7.55;6.75;;;21.80;47.50;;;;;;931924;152;27310;-78
2022/03/29 10:47:38;;;;;;;7.60;6.80;;;21.80;47.70;;;;;;931758;152;27354;-78
2022/03/29 10:50:05;;;;;;;7.58;6.83;;;21.80;47.70;;;;;;931045;151;27455;-78
2022/03/29 10:52:37;;;;;;;7.20;6.50;;;21.90;47.40;;;;;;931513;152;28683;-78
2022/03/29 10:55:16;;;;;;;7.97;7.05;;;21.90;47.30;;;;;;930311;151;27283;-78
2022/03/29 10:57:43;;;;;;;7.20;6.50;;;22.00;47.30;;;;;;929885;152;27335;-78
2022/03/29 11:00:13;;;;;;;7.10;6.00;;;22.10;47.50;;;;;;928316;150;27326;-78
2022/03/29 11:02:39;;;;;;;7.37;5.92;;;22.10;47.30;;;;;;931205;152;27879;-78
2022/03/29 11:05:08;;;;;;;7.37;6.00;;;22.20;46.80;;;;;;929632;152;27370;-78
2022/03/29 11:07:53;;;;;;;6.90;5.00;;;22.20;46.60;;;;;;932026;152;27351;-78
2022/03/29 11:10:19;;;;;;;7.53;5.50;;;22.30;46.50;;;;;;931191;150;27355;-78
2022/03/29 11:12:46;;;;;;;8.23;7.42;;;22.40;46.40;;;;;;930841;152;27316;-78
2022/03/29 11:15:25;;;;;;;8.55;6.22;;;22.50;46.20;;;;;;929775;152;27379;-78
2022/03/29 11:17:54;;;;;;;9.68;6.62;;;22.50;46.20;;;;;;930122;151;27361;-78
2022/03/29 11:20:36;;;;;;;7.17;6.33;;;22.60;46.20;;;;;;928448;151;27460;-78
2022/03/29 11:23:04;;;;;;;7.80;6.37;;;22.60;46.00;;;;;;932023;151;27442;-78
2022/03/29 11:25:29;;;;;;;6.58;5.90;;;22.70;45.70;;;;;;930154;150;28584;-79
2022/03/29 11:27:55;;;;;;;7.08;6.03;;;22.70;45.90;;;;;;930191;152;27378;-79
2022/03/29 11:30:22;;;;;;;6.58;5.90;;;22.80;45.70;;;;;;928820;150;27359;-79
2022/03/29 11:32:49;;;;;;;7.40;5.60;;;22.80;44.90;;;;;;931638;151;27319;-78
2022/03/29 11:35:16;;;;;;;6.12;5.42;;;22.90;45.40;;;;;;931424;151;29194;-78
2022/03/29 11:37:43;;;;;;;10.68;6.53;;;23.00;45.20;;;;;;930872;151;27463;-78
2022/03/29 11:40:08;;;;;;;6.47;5.87;;;23.00;44.50;;;;;;931264;151;27394;-78
2022/03/29 11:42:56;;;;;;;6.05;5.45;;;23.10;44.40;;;;;;930748;151;27290;-79
2022/03/29 11:45:23;;;;;;;5.55;4.58;;;23.10;44.40;;;;;;930096;151;27330;-79
2022/03/29 11:47:55;;;;;;;6.75;5.03;;;23.10;44.10;;;;;;930081;151;27444;-78
2022/03/29 11:50:28;;;;;;;8.53;5.55;;;23.10;44.10;;;;;;930331;152;27346;-79
2022/03/29 11:52:54;;;;;;;6.37;5.62;;;23.10;44.10;;;;;;930389;152;27468;-79
2022/03/29 11:55:22;;;;;;;6.58;5.33;;;23.10;44.10;;;;;;931432;152;27398;-79
2022/03/29 11:57:48;;;;;;;8.03;5.85;;;23.10;44.10;;;;;;931542;152;27327;-79
2022/03/29 12:00:23;;;;;;;6.17;5.58;;;23.20;44.00;;;;;;930814;151;27451;-79
2022/03/29 12:02:50;;;;;;;6.90;5.58;;;23.20;43.80;;;;;;930722;152;27349;-78
2022/03/29 12:05:26;;;;;;;6.92;5.75;;;23.30;43.90;;;;;;930546;151;27331;-79
2022/03/29 12:07:55;;;;;;;7.47;6.00;;;23.30;43.70;;;;;;931430;152;27509;-78
2022/03/29 12:10:27;;;;;;;6.47;5.30;;;23.40;43.70;;;;;;930625;151;27414;-78
2022/03/29 12:12:54;;;;;;;6.08;5.47;;;23.40;43.60;;;;;;931005;152;27426;-79
2022/03/29 12:15:21;;;;;;;6.35;5.72;;;23.50;43.50;;;;;;930936;151;27397;-78
2022/03/29 12:17:50;;;;;;;7.20;5.80;;;23.60;43.30;;;;;;932080;152;27371;-79
2022/03/29 12:20:17;;;;;;;6.12;5.53;;;23.60;42.90;;;;;;930202;152;27440;-79
2022/03/29 12:22:43;;;;;;;7.15;5.75;;;23.60;42.60;;;;;;927766;151;27358;-79
2022/03/29 12:25:10;;;;;;;5.83;5.25;;;23.50;42.40;;;;;;932179;151;27330;-79
2022/03/29 12:27:37;;;;;;;7.40;5.85;;;23.50;42.50;;;;;;932111;152;27363;-79
2022/03/29 12:30:04;;;;;;;7.20;6.33;;;23.40;42.30;;;;;;932110;152;27362;-79
2022/03/29 12:32:30;;;;;;;5.95;5.35;;;23.40;42.20;;;;;;931759;151;27496;-79
2022/03/29 12:34:59;;;;;;;5.45;4.95;;;23.30;42.20;;;;;;932237;151;27327;-79
2022/03/29 12:37:27;;;;;;;7.30;5.40;;;23.20;42.20;;;;;;932170;151;27436;-79
2022/03/29 12:39:52;;;;;;;6.17;5.58;;;23.20;42.20;;;;;;931944;152;27348;-79
2022/03/29 12:42:19;;;;;;;8.88;5.60;;;23.10;42.00;;;;;;931489;152;27348;-79
2022/03/29 12:44:48;;;;;;;6.83;5.55;;;23.10;41.90;;;;;;931152;152;27358;-79
2022/03/29 12:47:15;;;;;;;7.33;5.05;;;23.00;41.80;;;;;;931447;152;27444;-79
2022/03/29 12:49:41;;;;;;;6.10;5.50;;;23.00;42.10;;;;;;931430;151;27380;-79
2022/03/29 12:52:08;;;;;;;5.25;4.75;;;22.90;42.00;;;;;;932062;152;28414;-79
2022/03/29 12:54:58;;;;;;;7.10;5.25;;;22.90;42.00;;;;;;931599;151;27387;-79